Station Historical Data
Daily Summary for September 26, 2017 Units:  English    Metric   Both
« Previous Day
Next Day »
Daily Weekly Monthly Yearly Custom
  High: Low: Average:
Temperature: 88.9 °F 66.3 °F 76.7 °F
Dew Point: 69.9 °F 62.1 °F 65.7 °F
Humidity: 89% 45% 71%
Wind Speed: 6.0mph 0.0mph 1.2mph
Wind Gust: 11.0mph - -
Wind- - WSW
Pressure: 29.99 in 29.91 in -
Precipitation: 0.00 in    
Historical Graphs
 
 
Tabular Data for September 26, 2017
Time Temperature Dew Point Pressure Wind Wind Speed Wind Gust Humidity Rainfall Rate (Hourly)
00:04 72.6 °F 66.8 °F 29.97 in Calm     82% 0.00 in
00:09 72.5 °F 66.7 °F 29.97 in Calm     82% 0.00 in
00:14 72.3 °F 66.5 °F 29.97 in Calm     82% 0.00 in
00:19 72.2 °F 66.7 °F 29.96 in Calm     83% 0.00 in
00:24 72.1 °F 66.6 °F 29.97 in Calm     83% 0.00 in
00:29 72.1 °F 66.6 °F 29.97 in Calm     83% 0.00 in
00:34 71.9 °F 66.5 °F 29.97 in Calm     83% 0.00 in
00:39 71.8 °F 66.4 °F 29.97 in Calm     83% 0.00 in
00:44 71.6 °F 66.2 °F 29.97 in Calm     83% 0.00 in
00:49 71.3 °F 65.9 °F 29.97 in Calm     83% 0.00 in
00:54 71.2 °F 65.8 °F 29.97 in Calm     83% 0.00 in
00:59 70.9 °F 65.8 °F 29.97 in Calm     84% 0.00 in
01:04 70.8 °F 65.7 °F 29.97 in Calm     84% 0.00 in
01:09 70.8 °F 65.7 °F 29.97 in Calm     84% 0.00 in
01:14 70.6 °F 65.5 °F 29.97 in Calm     84% 0.00 in
01:19 70.4 °F 65.3 °F 29.97 in Calm     84% 0.00 in
01:24 70.3 °F 65.6 °F 29.97 in Calm     85% 0.00 in
01:29 70.3 °F 65.6 °F 29.97 in Calm     85% 0.00 in
01:34 70.2 °F 65.5 °F 29.97 in Calm     85% 0.00 in
01:39 70.1 °F 65.4 °F 29.98 in Calm     85% 0.00 in
01:44 70.3 °F 65.6 °F 29.98 in Calm     85% 0.00 in
01:49 70.1 °F 65.4 °F 29.98 in Calm     85% 0.00 in
01:54 70.0 °F 65.3 °F 29.98 in Calm     85% 0.00 in
01:59 69.8 °F 65.1 °F 29.98 in Calm     85% 0.00 in
02:04 69.7 °F 65.3 °F 29.98 in Calm     86% 0.00 in
02:09 69.6 °F 65.2 °F 29.98 in Calm     86% 0.00 in
02:14 69.6 °F 65.2 °F 29.98 in Calm     86% 0.00 in
02:19 69.7 °F 65.3 °F 29.98 in Calm     86% 0.00 in
02:24 69.7 °F 65.0 °F 29.98 in Calm     85% 0.00 in
02:29 69.6 °F 65.2 °F 29.98 in Calm     86% 0.00 in
02:34 69.5 °F 65.1 °F 29.98 in Calm     86% 0.00 in
02:39 69.6 °F 65.2 °F 29.97 in Calm     86% 0.00 in
02:44 69.7 °F 65.3 °F 29.97 in Calm     86% 0.00 in
02:49 69.7 °F 65.3 °F 29.97 in Calm     86% 0.00 in
02:54 69.6 °F 64.9 °F 29.98 in Calm     85% 0.00 in
02:59 69.6 °F 64.9 °F 29.97 in Calm     85% 0.00 in
03:04 69.6 °F 64.9 °F 29.98 in Calm     85% 0.00 in
03:09 69.6 °F 64.9 °F 29.98 in Calm     85% 0.00 in
03:19 69.6 °F 64.9 °F 29.98 in Calm     85% 0.00 in
03:24 69.6 °F 64.9 °F 29.97 in Calm     85% 0.00 in
03:29 69.6 °F 64.9 °F 29.98 in Calm     85% 0.00 in
03:34 69.6 °F 64.9 °F 29.98 in Calm     85% 0.00 in
03:39 69.6 °F 64.9 °F 29.98 in Calm     85% 0.00 in
03:44 69.7 °F 65.0 °F 29.98 in Calm     85% 0.00 in
03:49 69.6 °F 64.9 °F 29.97 in Calm     85% 0.00 in
03:54 69.6 °F 64.9 °F 29.97 in Calm     85% 0.00 in
04:04 69.5 °F 64.8 °F 29.97 in Calm     85% 0.00 in
04:09 69.3 °F 64.6 °F 29.97 in Calm     85% 0.00 in
04:19 69.0 °F 64.6 °F 29.97 in Calm     86% 0.00 in
04:24 68.9 °F 64.5 °F 29.97 in Calm     86% 0.00 in
04:29 68.8 °F 64.4 °F 29.97 in Calm     86% 0.00 in
04:34 68.7 °F 64.3 °F 29.97 in Calm     86% 0.00 in
04:39 68.6 °F 64.2 °F 29.97 in Calm     86% 0.00 in
04:44 68.5 °F 64.5 °F 29.97 in Calm     87% 0.00 in
04:49 68.3 °F 63.9 °F 29.97 in Calm     86% 0.00 in
04:54 68.2 °F 63.9 °F 29.97 in Calm     86% 0.00 in
04:59 68.1 °F 64.1 °F 29.97 in Calm     87% 0.00 in
05:04 68.0 °F 64.0 °F 29.97 in Calm     87% 0.00 in
05:09 67.9 °F 63.9 °F 29.97 in Calm     87% 0.00 in
05:14 67.8 °F 63.8 °F 29.97 in Calm     87% 0.00 in
05:19 67.6 °F 63.6 °F 29.97 in Calm     87% 0.00 in
05:24 67.4 °F 63.4 °F 29.97 in Calm     87% 0.00 in
05:29 67.4 °F 63.4 °F 29.97 in Calm     87% 0.00 in
05:34 67.2 °F 63.5 °F 29.97 in Calm     88% 0.00 in
05:39 67.1 °F 63.4 °F 29.97 in Calm     88% 0.00 in
05:44 67.0 °F 63.3 °F 29.97 in Calm     88% 0.00 in
05:49 66.9 °F 63.2 °F 29.97 in Calm     88% 0.00 in
05:54 66.7 °F 63.0 °F 29.97 in Calm     88% 0.00 in
05:59 66.7 °F 63.0 °F 29.97 in Calm     88% 0.00 in
06:04 66.6 °F 62.9 °F 29.97 in Calm     88% 0.00 in
06:09 66.6 °F 63.3 °F 29.97 in Calm     89% 0.00 in
06:14 66.5 °F 63.2 °F 29.97 in Calm     89% 0.00 in
06:19 66.4 °F 63.1 °F 29.98 in Calm     89% 0.00 in
06:24 66.3 °F 63.0 °F 29.97 in Calm     89% 0.00 in
06:29 66.3 °F 63.0 °F 29.98 in Calm     89% 0.00 in
06:34 66.3 °F 63.0 °F 29.98 in Calm     89% 0.00 in
06:39 66.3 °F 63.0 °F 29.98 in Calm     89% 0.00 in
06:44 66.5 °F 63.2 °F 29.98 in Calm     89% 0.00 in
06:49 66.6 °F 63.3 °F 29.98 in Calm     89% 0.00 in
06:59 66.6 °F 63.3 °F 29.98 in Calm     89% 0.00 in
07:04 66.7 °F 63.4 °F 29.98 in Calm     89% 0.00 in
07:14 66.6 °F 63.3 °F 29.98 in Calm     89% 0.00 in
07:19 66.6 °F 63.3 °F 29.98 in Calm     89% 0.00 in
07:24 66.7 °F 63.4 °F 29.98 in Calm     89% 0.00 in
07:29 67.1 °F 63.7 °F 29.98 in Calm     89% 0.00 in
07:34 67.4 °F 64.0 °F 29.98 in Calm     89% 0.00 in
07:39 67.5 °F 63.8 °F 29.99 in Calm     88% 0.00 in
07:44 67.7 °F 64.0 °F 29.99 in Calm     88% 0.00 in
07:49 68.0 °F 64.3 °F 29.99 in Calm     88% 0.00 in
07:54 68.3 °F 64.3 °F 29.99 in Calm     87% 0.00 in
07:59 68.6 °F 64.6 °F 29.99 in Calm     87% 0.00 in
08:04 68.9 °F 64.5 °F 29.99 in Calm     86% 0.00 in
08:09 69.4 °F 65.0 °F 29.99 in Calm     86% 0.00 in
08:14 69.9 °F 65.2 °F 29.99 in Calm     85% 0.00 in
08:19 70.5 °F 65.1 °F 29.99 in Calm     83% 0.00 in
08:24 70.9 °F 65.1 °F 29.99 in Calm     82% 0.00 in
08:29 71.3 °F 65.5 °F 29.99 in Calm     82% 0.00 in
08:34 71.7 °F 65.6 °F 29.99 in Calm     81% 0.00 in
08:39 72.4 °F 65.9 °F 29.99 in Calm     80% 0.00 in
08:44 73.1 °F 66.2 °F 29.99 in Calm     79% 0.00 in
08:49 73.7 °F 66.4 °F 29.99 in Calm     78% 0.00 in
08:54 74.0 °F 66.3 °F 29.99 in Calm   3.0 mph 77% 0.00 in
08:59 74.1 °F 66.0 °F 29.99 in Calm   4.0 mph 76% 0.00 in
09:04 74.3 °F 66.2 °F 29.99 in SSW 1.0 mph 4.0 mph 76% 0.00 in
09:09 74.2 °F 66.5 °F 29.99 in Calm   2.0 mph 77% 0.00 in
09:14 74.7 °F 66.6 °F 29.99 in Calm   2.0 mph 76% 0.00 in
09:19 74.9 °F 66.4 °F 29.99 in SSW 2.0 mph 3.0 mph 75% 0.00 in
09:24 74.9 °F 66.4 °F 29.99 in Calm   2.0 mph 75% 0.00 in
09:29 75.0 °F 66.5 °F 29.99 in Calm   3.0 mph 75% 0.00 in
09:34 75.3 °F 66.8 °F 29.99 in SSW 1.0 mph 3.0 mph 75% 0.00 in
09:39 75.9 °F 67.0 °F 29.99 in SSW 1.0 mph 4.0 mph 74% 0.00 in
09:44 76.0 °F 67.1 °F 29.99 in SSW 1.0 mph 4.0 mph 74% 0.00 in
09:49 76.5 °F 67.6 °F 29.99 in Calm   3.0 mph 74% 0.00 in
09:54 77.4 °F 68.1 °F 29.99 in Calm   3.0 mph 73% 0.00 in
09:59 78.1 °F 67.5 °F 29.99 in SSW 4.0 mph 6.0 mph 70% 0.00 in
10:04 78.6 °F 68.0 °F 29.99 in SW 2.0 mph 6.0 mph 70% 0.00 in
10:09 79.3 °F 67.8 °F 29.99 in SW 2.0 mph 6.0 mph 68% 0.00 in
10:14 80.1 °F 68.2 °F 29.99 in Calm   4.0 mph 67% 0.00 in
10:19 80.5 °F 68.1 °F 29.99 in WSW 3.0 mph 5.0 mph 66% 0.00 in
10:24 81.1 °F 67.8 °F 29.99 in WSW 2.0 mph 6.0 mph 64% 0.00 in
10:29 81.4 °F 68.5 °F 29.99 in WSW 3.0 mph 5.0 mph 65% 0.00 in
10:34 82.2 °F 68.3 °F 29.98 in WSW 2.0 mph 5.0 mph 63% 0.00 in
10:39 82.5 °F 68.2 °F 29.98 in SW 2.0 mph 5.0 mph 62% 0.00 in
10:44 82.8 °F 68.4 °F 29.98 in SW 2.0 mph 5.0 mph 62% 0.00 in
10:54 83.3 °F 68.9 °F 29.98 in WSW 2.0 mph 5.0 mph 62% 0.00 in
10:59 83.4 °F 69.5 °F 29.98 in West 2.0 mph 4.0 mph 63% 0.00 in
11:04 83.7 °F 67.8 °F 29.98 in WSW 2.0 mph 6.0 mph 59% 0.00 in
11:09 83.9 °F 68.5 °F 29.98 in West 3.0 mph 6.0 mph 60% 0.00 in
11:14 84.4 °F 68.5 °F 29.98 in SW 4.0 mph 6.0 mph 59% 0.00 in
11:19 84.3 °F 68.4 °F 29.98 in WSW 1.0 mph 5.0 mph 59% 0.00 in
11:24 84.4 °F 68.0 °F 29.98 in SW 1.0 mph 6.0 mph 58% 0.00 in
11:29 84.8 °F 68.4 °F 29.98 in WSW 3.0 mph 6.0 mph 58% 0.00 in
11:34 85.3 °F 69.3 °F 29.98 in WSW 3.0 mph 6.0 mph 59% 0.00 in
11:39 85.6 °F 69.6 °F 29.98 in West 3.0 mph 7.0 mph 59% 0.00 in
11:44 85.4 °F 68.4 °F 29.98 in West 3.0 mph 8.0 mph 57% 0.00 in
11:49 85.4 °F 69.4 °F 29.98 in WSW 2.0 mph 6.0 mph 59% 0.00 in
11:54 86.3 °F 68.2 °F 29.98 in West 4.0 mph 6.0 mph 55% 0.00 in
11:59 86.2 °F 69.2 °F 29.98 in West 2.0 mph 9.0 mph 57% 0.00 in
12:04 85.8 °F 68.3 °F 29.98 in SW 2.0 mph 7.0 mph 56% 0.00 in
12:09 85.9 °F 68.9 °F 29.98 in SW 3.0 mph 6.0 mph 57% 0.00 in
12:14 85.9 °F 68.9 °F 29.98 in SW 3.0 mph 6.0 mph 57% 0.00 in
12:19 86.2 °F 68.1 °F 29.97 in SW 4.0 mph 7.0 mph 55% 0.00 in
12:24 86.0 °F 68.0 °F 29.97 in Calm   6.0 mph 55% 0.00 in
12:29 86.0 °F 68.0 °F 29.97 in SW 2.0 mph 7.0 mph 55% 0.00 in
12:34 86.4 °F 68.8 °F 29.97 in SW 3.0 mph 7.0 mph 56% 0.00 in
12:39 86.3 °F 68.8 °F 29.97 in WSW 3.0 mph 7.0 mph 56% 0.00 in
12:49 86.2 °F 67.6 °F 29.97 in WSW 3.0 mph 8.0 mph 54% 0.00 in
12:54 86.7 °F 68.1 °F 29.97 in WSW 3.0 mph 8.0 mph 54% 0.00 in
12:59 86.6 °F 68.5 °F 29.97 in West 2.0 mph 5.0 mph 55% 0.00 in
13:04 86.7 °F 68.1 °F 29.97 in West 3.0 mph 8.0 mph 54% 0.00 in
13:09 85.8 °F 67.8 °F 29.96 in WSW 3.0 mph 8.0 mph 55% 0.00 in
13:14 86.1 °F 68.6 °F 29.96 in WSW 4.0 mph 6.0 mph 56% 0.00 in
13:19 86.7 °F 68.1 °F 29.96 in West 2.0 mph 6.0 mph 54% 0.00 in
13:24 86.8 °F 68.7 °F 29.96 in SW 2.0 mph 9.0 mph 55% 0.00 in
13:29 87.2 °F 68.5 °F 29.96 in SSW 1.0 mph 6.0 mph 54% 0.00 in
13:34 87.2 °F 67.4 °F 29.95 in WSW 3.0 mph 8.0 mph 52% 0.00 in
13:39 87.5 °F 69.9 °F 29.95 in West 5.0 mph 7.0 mph 56% 0.00 in
13:44 88.1 °F 68.8 °F 29.95 in WSW 3.0 mph 6.0 mph 53% 0.00 in
13:49 88.2 °F 67.8 °F 29.95 in SW 4.0 mph 8.0 mph 51% 0.00 in
13:54 87.9 °F 68.1 °F 29.95 in NW 3.0 mph 6.0 mph 52% 0.00 in
13:59 88.2 °F 68.4 °F 29.95 in WSW 4.0 mph 9.0 mph 52% 0.00 in
14:04 88.3 °F 68.4 °F 29.95 in WSW 4.0 mph 9.0 mph 52% 0.00 in
14:09 88.0 °F 69.3 °F 29.95 in WSW 5.0 mph 8.0 mph 54% 0.00 in
14:14 87.9 °F 68.6 °F 29.94 in WSW 4.0 mph 8.0 mph 53% 0.00 in
14:19 87.9 °F 68.1 °F 29.95 in West 4.0 mph 8.0 mph 52% 0.00 in
14:24 88.3 °F 68.4 °F 29.94 in West 4.0 mph 8.0 mph 52% 0.00 in
14:29 88.2 °F 68.9 °F 29.95 in WNW 3.0 mph 7.0 mph 53% 0.00 in
14:34 88.4 °F 69.1 °F 29.94 in WSW 2.0 mph 6.0 mph 53% 0.00 in
14:39 88.2 °F 66.6 °F 29.94 in WSW 3.0 mph 9.0 mph 49% 0.00 in
14:44 88.8 °F 68.3 °F 29.94 in SSW 2.0 mph 6.0 mph 51% 0.00 in
14:49 88.9 °F 68.4 °F 29.94 in WSW 6.0 mph 7.0 mph 51% 0.00 in
14:54 88.7 °F 68.2 °F 29.94 in WSW 6.0 mph 7.0 mph 51% 0.00 in
14:59 88.6 °F 68.2 °F 29.94 in WSW 4.0 mph 8.0 mph 51% 0.00 in
15:04 88.5 °F 68.6 °F 29.94 in WSW 4.0 mph 8.0 mph 52% 0.00 in
15:09 88.3 °F 67.9 °F 29.94 in WSW 4.0 mph 8.0 mph 51% 0.00 in
15:14 88.3 °F 67.9 °F 29.94 in West 4.0 mph 7.0 mph 51% 0.00 in
15:19 88.0 °F 68.2 °F 29.94 in WSW 5.0 mph 9.0 mph 52% 0.00 in
15:24 87.9 °F 67.5 °F 29.94 in WSW 6.0 mph 7.0 mph 51% 0.00 in
15:29 88.5 °F 68.6 °F 29.94 in WSW 4.0 mph 7.0 mph 52% 0.00 in
15:34 88.6 °F 67.0 °F 29.94 in West 4.0 mph 9.0 mph 49% 0.00 in
15:39 88.2 °F 67.8 °F 29.93 in WSW 6.0 mph 9.0 mph 51% 0.00 in
15:44 88.0 °F 67.6 °F 29.93 in WSW 5.0 mph 10.0 mph 51% 0.00 in
15:49 88.2 °F 66.6 °F 29.93 in West 4.0 mph 7.0 mph 49% 0.00 in
15:54 88.3 °F 67.3 °F 29.93 in WSW 4.0 mph 9.0 mph 50% 0.00 in
15:59 88.2 °F 66.0 °F 29.93 in WSW 4.0 mph 11.0 mph 48% 0.00 in
16:04 87.7 °F 66.2 °F 29.93 in WSW 4.0 mph 11.0 mph 49% 0.00 in
16:09 87.6 °F 67.2 °F 29.93 in WSW 5.0 mph 10.0 mph 51% 0.00 in
16:14 87.6 °F 66.7 °F 29.93 in SW 4.0 mph 7.0 mph 50% 0.00 in
16:19 87.5 °F 66.0 °F 29.93 in West 2.0 mph 9.0 mph 49% 0.00 in
16:24 87.2 °F 66.3 °F 29.93 in WSW 3.0 mph 8.0 mph 50% 0.00 in
16:34 87.2 °F 66.3 °F 29.92 in West 5.0 mph 9.0 mph 50% 0.00 in
16:39 87.3 °F 65.2 °F 29.92 in West 4.0 mph 9.0 mph 48% 0.00 in
16:44 87.2 °F 64.5 °F 29.92 in West 4.0 mph 9.0 mph 47% 0.00 in
16:49 87.1 °F 65.0 °F 29.92 in WSW 4.0 mph 9.0 mph 48% 0.00 in
16:54 86.9 °F 64.8 °F 29.92 in West 4.0 mph 9.0 mph 48% 0.00 in
16:59 86.7 °F 63.4 °F 29.92 in West 4.0 mph 9.0 mph 46% 0.00 in
17:04 86.9 °F 64.8 °F 29.92 in WSW 2.0 mph 7.0 mph 48% 0.00 in
17:09 86.8 °F 62.9 °F 29.92 in West 4.0 mph 6.0 mph 45% 0.00 in
17:14 86.6 °F 64.0 °F 29.92 in West 2.0 mph 8.0 mph 47% 0.00 in
17:19 86.5 °F 63.9 °F 29.92 in SSW 5.0 mph 8.0 mph 47% 0.00 in
17:24 86.2 °F 63.6 °F 29.92 in West 5.0 mph 9.0 mph 47% 0.00 in
17:29 86.1 °F 64.1 °F 29.92 in WSW 4.0 mph 9.0 mph 48% 0.00 in
17:34 85.7 °F 63.8 °F 29.92 in WSW 4.0 mph 8.0 mph 48% 0.00 in
17:39 85.3 °F 64.0 °F 29.92 in WSW 4.0 mph 8.0 mph 49% 0.00 in
17:44 85.1 °F 63.8 °F 29.91 in WSW 2.0 mph 6.0 mph 49% 0.00 in
17:49 84.8 °F 64.1 °F 29.92 in SW 3.0 mph 7.0 mph 50% 0.00 in
17:54 84.5 °F 64.9 °F 29.92 in Calm   6.0 mph 52% 0.00 in
17:59 84.2 °F 64.1 °F 29.92 in SW 3.0 mph 6.0 mph 51% 0.00 in
18:04 83.9 °F 64.4 °F 29.92 in SW 3.0 mph 5.0 mph 52% 0.00 in
18:09 83.7 °F 64.8 °F 29.92 in SW 3.0 mph 5.0 mph 53% 0.00 in
18:14 83.6 °F 64.1 °F 29.92 in SSW 4.0 mph 4.0 mph 52% 0.00 in
18:19 83.4 °F 65.0 °F 29.92 in WSW 2.0 mph 4.0 mph 54% 0.00 in
18:24 83.1 °F 65.3 °F 29.91 in SSW 1.0 mph 5.0 mph 55% 0.00 in
18:29 82.7 °F 65.4 °F 29.91 in SW 2.0 mph 5.0 mph 56% 0.00 in
18:34 82.3 °F 65.5 °F 29.92 in SSW 2.0 mph 4.0 mph 57% 0.00 in
18:39 81.9 °F 65.7 °F 29.92 in SSW 1.0 mph 4.0 mph 58% 0.00 in
18:44 81.6 °F 65.9 °F 29.92 in SW 1.0 mph 5.0 mph 59% 0.00 in
18:49 81.2 °F 66.0 °F 29.92 in SW 2.0 mph 4.0 mph 60% 0.00 in
18:54 80.8 °F 66.1 °F 29.92 in SW 1.0 mph 4.0 mph 61% 0.00 in
18:59 80.4 °F 65.7 °F 29.92 in SW 1.0 mph 4.0 mph 61% 0.00 in
19:04 80.1 °F 65.9 °F 29.92 in SW 1.0 mph 5.0 mph 62% 0.00 in
19:09 79.7 °F 66.0 °F 29.92 in SSW 1.0 mph 5.0 mph 63% 0.00 in
19:14 79.3 °F 66.1 °F 29.92 in Calm   3.0 mph 64% 0.00 in
19:19 78.9 °F 66.1 °F 29.92 in SSW 1.0 mph 2.0 mph 65% 0.00 in
19:24 78.5 °F 66.2 °F 29.92 in Calm   2.0 mph 66% 0.00 in
19:29 78.2 °F 66.3 °F 29.92 in Calm   2.0 mph 67% 0.00 in
19:34 77.8 °F 66.4 °F 29.92 in Calm     68% 0.00 in
19:39 77.5 °F 66.5 °F 29.92 in Calm     69% 0.00 in
19:44 77.1 °F 66.6 °F 29.92 in Calm     70% 0.00 in
19:49 76.8 °F 66.7 °F 29.92 in Calm     71% 0.00 in
19:54 76.5 °F 66.4 °F 29.92 in Calm     71% 0.00 in
19:59 76.4 °F 66.7 °F 29.92 in Calm     72% 0.00 in
20:04 76.2 °F 66.5 °F 29.92 in Calm     72% 0.00 in
20:09 76.1 °F 66.4 °F 29.92 in Calm     72% 0.00 in
20:14 75.9 °F 66.2 °F 29.92 in Calm   4.0 mph 72% 0.00 in
20:19 75.7 °F 66.0 °F 29.92 in Calm     72% 0.00 in
20:24 75.7 °F 66.0 °F 29.92 in Calm   3.0 mph 72% 0.00 in
20:29 75.5 °F 65.8 °F 29.92 in Calm   2.0 mph 72% 0.00 in
20:34 75.3 °F 65.6 °F 29.92 in Calm   3.0 mph 72% 0.00 in
20:39 75.2 °F 65.6 °F 29.92 in Calm     72% 0.00 in
20:44 75.1 °F 65.5 °F 29.92 in Calm     72% 0.00 in
20:49 74.9 °F 65.3 °F 29.92 in Calm     72% 0.00 in
20:54 74.8 °F 65.2 °F 29.92 in Calm     72% 0.00 in
20:59 74.6 °F 65.4 °F 29.92 in Calm     73% 0.00 in
21:04 74.4 °F 65.2 °F 29.92 in Calm     73% 0.00 in
21:09 74.3 °F 65.1 °F 29.92 in Calm     73% 0.00 in
21:14 74.1 °F 64.9 °F 29.92 in Calm     73% 0.00 in
21:19 74.0 °F 64.8 °F 29.92 in Calm     73% 0.00 in
21:24 73.9 °F 64.7 °F 29.92 in Calm     73% 0.00 in
21:29 73.9 °F 64.7 °F 29.92 in Calm     73% 0.00 in
21:34 73.7 °F 64.5 °F 29.92 in Calm     73% 0.00 in
21:39 73.5 °F 64.3 °F 29.92 in Calm     73% 0.00 in
21:44 73.3 °F 64.1 °F 29.92 in Calm     73% 0.00 in
21:49 73.2 °F 64.0 °F 29.92 in Calm     73% 0.00 in
21:54 73.1 °F 63.5 °F 29.92 in Calm     72% 0.00 in
21:59 73.0 °F 63.8 °F 29.92 in Calm     73% 0.00 in
22:04 72.9 °F 63.7 °F 29.92 in Calm     73% 0.00 in
22:09 72.6 °F 63.4 °F 29.92 in Calm     73% 0.00 in
22:14 72.7 °F 63.5 °F 29.92 in Calm     73% 0.00 in
22:19 72.7 °F 63.5 °F 29.92 in Calm     73% 0.00 in
22:24 72.7 °F 63.5 °F 29.92 in Calm     73% 0.00 in
22:29 72.4 °F 63.3 °F 29.92 in Calm     73% 0.00 in
22:34 72.1 °F 63.0 °F 29.92 in Calm     73% 0.00 in
22:39 71.9 °F 63.2 °F 29.92 in Calm     74% 0.00 in
22:44 71.7 °F 63.0 °F 29.92 in Calm     74% 0.00 in
22:49 71.5 °F 62.8 °F 29.91 in Calm     74% 0.00 in
22:54 71.2 °F 62.9 °F 29.91 in Calm     75% 0.00 in
22:59 71.1 °F 62.8 °F 29.91 in Calm     75% 0.00 in
23:04 71.0 °F 62.7 °F 29.91 in Calm     75% 0.00 in
23:09 70.8 °F 62.9 °F 29.91 in Calm     76% 0.00 in
23:14 70.7 °F 62.8 °F 29.91 in Calm     76% 0.00 in
23:19 70.6 °F 62.7 °F 29.91 in Calm     76% 0.00 in
23:24 70.4 °F 62.5 °F 29.91 in Calm     76% 0.00 in
23:29 70.2 °F 62.3 °F 29.91 in Calm     76% 0.00 in
23:34 70.0 °F 62.5 °F 29.91 in Calm     77% 0.00 in
23:39 69.9 °F 62.4 °F 29.91 in Calm     77% 0.00 in
23:44 69.7 °F 62.2 °F 29.91 in Calm     77% 0.00 in
23:49 69.5 °F 62.3 °F 29.91 in Calm     78% 0.00 in
23:54 69.3 °F 62.1 °F 29.91 in Calm     78% 0.00 in
23:59 69.2 °F 62.4 °F 29.91 in Calm     79% 0.00 in
Buffalo, New York, USA
Compliments of Weather Underground - 2.25 mb